createdAt,value
2018-07-22T00:03:51.523Z,67.6
2018-07-22T00:08:53.968Z,67.6
2018-07-22T00:13:56.589Z,68.1
2018-07-22T00:18:58.872Z,68.1
2018-07-22T00:24:01.395Z,68.8
2018-07-22T00:29:03.804Z,69
2018-07-22T00:34:06.405Z,69.4
2018-07-22T00:39:08.637Z,70
2018-07-22T00:44:11.117Z,70.7
2018-07-22T00:49:13.584Z,71.3
2018-07-22T00:54:16.067Z,71.1
2018-07-22T00:59:18.465Z,71.1
2018-07-22T01:04:21.096Z,71.5
2018-07-22T01:09:23.344Z,71.6
2018-07-22T01:14:25.754Z,71.6
2018-07-22T01:19:28.288Z,71.3
2018-07-22T01:24:30.671Z,71.3
2018-07-22T01:29:33.096Z,71.3
2018-07-22T01:34:35.540Z,71.6
2018-07-22T01:39:38.044Z,71.7
2018-07-22T01:44:40.435Z,71.8
2018-07-22T01:49:42.926Z,71.9
2018-07-22T01:54:45.386Z,72
2018-07-22T01:59:47.769Z,71.9
2018-07-22T02:04:50.227Z,71.9
2018-07-22T02:09:52.669Z,72.1
2018-07-22T02:14:55.386Z,72.2
2018-07-22T02:19:57.607Z,72.4
2018-07-22T02:25:00.086Z,72.6
2018-07-22T02:30:07.509Z,72.7
2018-07-22T02:35:04.906Z,72.6
2018-07-22T02:40:07.469Z,73.1
2018-07-22T02:45:09.811Z,73
2018-07-22T02:50:12.257Z,73.1
2018-07-22T02:55:14.720Z,73.4
2018-07-22T03:00:17.249Z,73.3
2018-07-22T03:05:19.555Z,73.4
2018-07-22T03:10:22.088Z,73.5
2018-07-22T03:15:24.480Z,73.6
2018-07-22T03:20:26.941Z,73.8
2018-07-22T03:25:29.371Z,73.9
2018-07-22T03:30:31.804Z,73.8
2018-07-22T03:35:34.253Z,73.9
2018-07-22T03:40:36.711Z,73.9
2018-07-22T03:45:39.182Z,73.8
2018-07-22T03:50:41.631Z,73.8
2018-07-22T03:55:44.049Z,73.9
2018-07-22T04:00:46.521Z,73.9
2018-07-22T04:05:49.140Z,73.8
2018-07-22T04:10:51.439Z,73.5
2018-07-22T04:15:53.938Z,73.5
2018-07-22T04:20:56.637Z,73.2
2018-07-22T04:25:58.729Z,73.1
2018-07-22T04:31:01.412Z,72.9
2018-07-22T04:36:03.713Z,72.7
2018-07-22T04:41:06.284Z,72.4
2018-07-22T04:46:08.576Z,72.3
2018-07-22T04:51:10.998Z,71.9
2018-07-22T04:56:13.408Z,71.6
2018-07-22T05:01:15.845Z,71.5
2018-07-22T05:06:18.394Z,71.1
2018-07-22T05:11:20.722Z,70.9
2018-07-22T05:16:23.321Z,70.3
2018-07-22T05:21:25.680Z,69.2
2018-07-22T05:26:28.232Z,69.1
2018-07-22T05:31:30.616Z,68.8
2018-07-22T05:36:33.080Z,68
2018-07-22T05:41:36.068Z,67.1
2018-07-22T05:46:38.063Z,65.6
2018-07-22T05:51:40.341Z,66.2
2018-07-22T05:56:42.749Z,65.3
2018-07-22T06:01:45.219Z,65.4
2018-07-22T06:06:47.617Z,64
2018-07-22T06:11:50.162Z,63.6
2018-07-22T06:16:52.578Z,62.9
2018-07-22T06:21:54.986Z,62.3
2018-07-22T06:26:57.387Z,62
2018-07-22T06:32:00.116Z,60.9
2018-07-22T06:37:02.297Z,60.1
2018-07-22T06:42:04.745Z,60.3
2018-07-22T06:47:07.242Z,59.4
2018-07-22T06:52:09.672Z,58.5
2018-07-22T06:57:12.060Z,57.5
2018-07-22T07:02:14.645Z,56
2018-07-22T07:07:16.982Z,53.3
2018-07-22T07:12:19.448Z,54.4
2018-07-22T07:17:21.885Z,53.8
2018-07-22T07:22:24.570Z,54.1
2018-07-22T07:27:26.809Z,52.9
2018-07-22T07:32:29.573Z,52.8
2018-07-22T07:37:31.923Z,53
2018-07-22T07:42:34.073Z,51.6
2018-07-22T07:47:36.539Z,51
2018-07-22T07:52:38.993Z,48.3
2018-07-22T07:57:41.440Z,44.7
2018-07-22T08:02:43.961Z,42.9
2018-07-22T08:07:46.327Z,41.3
2018-07-22T08:12:48.763Z,39.2
2018-07-22T08:17:51.213Z,37.5
2018-07-22T08:22:53.688Z,37
2018-07-22T08:27:56.140Z,36.9
2018-07-22T08:32:58.558Z,38.5
2018-07-22T08:38:01.047Z,41.6
2018-07-22T08:43:03.444Z,41.5
2018-07-22T08:48:05.895Z,40.1
2018-07-22T08:53:08.368Z,40.7
2018-07-22T08:58:10.996Z,40.9
2018-07-22T09:03:13.318Z,41
2018-07-22T09:08:15.706Z,40.3
2018-07-22T09:13:18.306Z,41.7
2018-07-22T09:18:20.678Z,40.8
2018-07-22T09:23:23.068Z,41.4
2018-07-22T09:28:25.534Z,41.9
2018-07-22T09:33:27.928Z,41
2018-07-22T09:38:30.682Z,42
2018-07-22T09:43:32.886Z,42.3
2018-07-22T09:48:35.260Z,42.3
2018-07-22T09:53:37.796Z,42.5
2018-07-22T09:58:40.380Z,42
2018-07-22T10:03:42.611Z,41.1
2018-07-22T10:08:45.133Z,41.5
2018-07-22T10:13:47.557Z,42
2018-07-22T10:18:49.957Z,40.7
2018-07-22T10:23:52.480Z,39.3
2018-07-22T10:28:54.825Z,40.5
2018-07-22T10:33:57.356Z,41.2
2018-07-22T10:38:59.809Z,41.3
2018-07-22T10:44:02.215Z,41.6
2018-07-22T10:49:04.641Z,43
2018-07-22T10:54:07.119Z,43
2018-07-22T10:59:09.609Z,43
2018-07-22T11:04:11.961Z,42.6
2018-07-22T11:14:17.032Z,43.3
2018-07-22T11:19:19.471Z,45.5
2018-07-22T11:24:21.839Z,46.1
2018-07-22T11:29:24.246Z,47.1
2018-07-22T11:34:27.176Z,46.9
2018-07-22T11:39:29.419Z,45.6
2018-07-22T11:44:31.663Z,45.6
2018-07-22T11:49:34.043Z,45.4
2018-07-22T11:54:36.494Z,46.4
2018-07-22T11:59:38.935Z,46.6
2018-07-22T12:04:41.422Z,45.9
2018-07-22T12:09:43.866Z,45.8
2018-07-22T12:14:46.512Z,43.8
2018-07-22T12:19:48.740Z,43.1
2018-07-22T12:24:51.192Z,42.7
2018-07-22T12:29:53.898Z,44.6
2018-07-22T12:34:56.457Z,45.9
2018-07-22T12:39:58.625Z,46.7
2018-07-22T12:45:01.324Z,47.4
2018-07-22T12:50:03.601Z,46.4
2018-07-22T12:55:05.936Z,46.3
2018-07-22T13:00:08.435Z,45.2
2018-07-22T13:05:11.434Z,45.5
2018-07-22T13:10:13.361Z,45.6
2018-07-22T13:15:15.688Z,44.5
2018-07-22T13:20:18.216Z,44.4
2018-07-22T13:25:20.643Z,44.2
2018-07-22T13:30:23.304Z,44.7
2018-07-22T13:35:25.680Z,43.4
2018-07-22T13:40:28.310Z,43.7
2018-07-22T13:45:30.811Z,42.9
2018-07-22T13:50:32.906Z,43
2018-07-22T13:55:35.310Z,41.9
2018-07-22T14:00:37.924Z,41
2018-07-22T14:05:40.258Z,39.9
2018-07-22T14:15:45.271Z,39.7
2018-07-22T14:20:47.502Z,39.5
2018-07-22T14:25:50.046Z,39.3
2018-07-22T14:30:52.403Z,39.4
2018-07-22T14:35:54.869Z,39.6
2018-07-22T14:40:57.307Z,38.5
2018-07-22T14:45:59.817Z,38.9
2018-07-22T14:51:02.264Z,39.7
2018-07-22T14:56:04.649Z,40.8
2018-07-22T15:01:07.141Z,40.3
2018-07-22T15:06:09.542Z,38.9
2018-07-22T15:11:11.965Z,39.4
2018-07-22T15:16:14.409Z,38.6
2018-07-22T15:21:17.140Z,38.1
2018-07-22T15:26:19.434Z,38.3
2018-07-22T15:31:21.767Z,38.2
2018-07-22T15:36:24.225Z,39.4
2018-07-22T15:41:26.708Z,38.7
2018-07-22T15:46:29.100Z,38.7
2018-07-22T15:51:31.552Z,39
2018-07-22T15:56:33.984Z,39.8
2018-07-22T16:01:36.482Z,39.5
2018-07-22T16:06:38.882Z,40.2
2018-07-22T16:11:41.417Z,41
2018-07-22T16:16:43.985Z,40.6
2018-07-22T16:21:46.286Z,41.5
2018-07-22T16:26:48.759Z,41.5
2018-07-22T16:31:51.139Z,41.1
2018-07-22T16:36:53.866Z,41.5
2018-07-22T16:41:56.020Z,40.8
2018-07-22T16:46:58.504Z,40.8
2018-07-22T16:52:00.930Z,41.9
2018-07-22T16:57:03.483Z,42.7
2018-07-22T17:02:05.834Z,43
2018-07-22T17:07:08.275Z,43.5
2018-07-22T17:12:10.787Z,44.3
2018-07-22T17:17:13.261Z,44.5
2018-07-22T17:22:15.811Z,44.9
2018-07-22T17:27:18.294Z,44.9
2018-07-22T17:32:20.556Z,45.3
2018-07-22T17:37:22.954Z,45.4
2018-07-22T17:42:25.544Z,45.8
2018-07-22T17:47:27.891Z,46.4
2018-07-22T17:52:30.296Z,46.6
2018-07-22T17:57:32.894Z,47.1
2018-07-22T18:02:35.474Z,47.2
2018-07-22T18:07:37.957Z,47.5
2018-07-22T18:12:40.274Z,47.8
2018-07-22T18:17:42.538Z,48.1
2018-07-22T18:22:45.002Z,48.4
2018-07-22T18:27:47.442Z,48.6
2018-07-22T18:32:49.970Z,49
2018-07-22T18:37:52.399Z,49.1
2018-07-22T18:42:54.768Z,49.5
2018-07-22T18:47:57.251Z,49.4
2018-07-22T18:52:59.694Z,49.5
2018-07-22T18:58:02.231Z,49.5
2018-07-22T19:03:04.547Z,49.6
2018-07-22T19:08:07.022Z,49.7
2018-07-22T19:13:09.489Z,49.9
2018-07-22T19:18:12.039Z,50.3
2018-07-22T19:23:14.491Z,50.7
2018-07-22T19:28:17.151Z,51.3
2018-07-22T19:33:19.310Z,52
2018-07-22T19:38:21.692Z,52.2
2018-07-22T19:43:24.112Z,52.6
2018-07-22T19:48:26.560Z,52.9
2018-07-22T19:53:29.005Z,53.6
2018-07-22T19:58:31.788Z,53.9
2018-07-22T20:23:44.087Z,55.5
2018-07-22T20:28:46.245Z,55.7
2018-07-22T20:33:48.564Z,56.1
2018-07-22T20:38:51.075Z,56.3
2018-07-22T20:43:53.512Z,56.3
2018-07-22T20:48:55.996Z,56.5
2018-07-22T20:53:58.359Z,56.6
2018-07-22T20:59:00.819Z,56.6
2018-07-22T21:04:03.656Z,56.7
2018-07-22T21:09:05.675Z,56.6
2018-07-22T21:14:08.214Z,56.7
2018-07-22T21:19:10.597Z,56.8
2018-07-22T21:24:13.035Z,56.8
2018-07-22T21:29:15.653Z,56.6
2018-07-22T21:34:18.180Z,56.8
2018-07-22T21:39:20.394Z,56.7
2018-07-22T21:44:22.868Z,56.8
2018-07-22T21:49:25.372Z,57.1
2018-07-22T21:54:27.770Z,57.3
2018-07-22T21:59:30.196Z,57.7
2018-07-22T22:04:32.627Z,58
2018-07-22T22:09:35.048Z,58.2
2018-07-22T22:14:37.502Z,58.3
2018-07-22T22:19:39.940Z,58.7
2018-07-22T22:24:42.626Z,58.6
2018-07-22T22:29:44.975Z,58.6
2018-07-22T22:34:47.362Z,58.9
2018-07-22T22:39:49.722Z,59.3
2018-07-22T22:44:52.400Z,59.5
2018-07-22T22:49:54.787Z,59.8
2018-07-22T22:54:57.082Z,60.1
2018-07-22T22:59:59.640Z,60.4
2018-07-22T23:05:02.085Z,60.6
2018-07-22T23:10:05.494Z,60.8
2018-07-22T23:15:06.917Z,60.9
2018-07-22T23:20:09.320Z,60.9
2018-07-22T23:25:11.742Z,61.2
2018-07-22T23:30:14.162Z,61.5
2018-07-22T23:35:16.622Z,61.4
2018-07-22T23:40:19.072Z,61.8
2018-07-22T23:45:21.508Z,62.1
2018-07-22T23:50:23.994Z,62.2
2018-07-22T23:55:26.424Z,62.7
